Weather reports worldwide

Advertisment
Karlsruhe/Baden-Baden, Germany (10722): temperature & dewpoint: 18.03.2019 17:00:00 - 24.03.2019 17:00:00 (CET)Karlsruhe/Baden-Baden, Germany (10722): wind speed: 18.03.2019 17:00:00 - 24.03.2019 17:00:00 (CET)Karlsruhe/Baden-Baden, Germany (10722): wind direction: 18.03.2019 17:00:00 - 24.03.2019 17:00:00 (CET)Karlsruhe/Baden-Baden, Germany (10722): visibility: 18.03.2019 17:00:00 - 24.03.2019 17:00:00 (CET)
Date & Time tt [°C] td [°C] ff [km/h] ff [kn] dd vv [km]
24.03.2019 17:00:00 - - - - - -
24.03.2019 16:00:00 15,0 6,0 4 2 - 7
24.03.2019 15:00:00 15,0 6,0 4 2 - 6
24.03.2019 14:00:00 14,0 5,0 5 3 - 6
24.03.2019 13:00:00 12,0 6,0 5 3 ENE 4,0
24.03.2019 12:00:00 12,0 5,0 4 2 - 5
24.03.2019 11:00:00 9,0 4,0 4 2 - 5
24.03.2019 10:00:00 8,0 5,0 5 3 E 5
24.03.2019 09:00:00 7,0 5,0 9 5 ENE 4,4
24.03.2019 08:00:00 5,0 4,0 5 3 ENE 3,2
24.03.2019 07:00:00 4,0 3,0 5 3 NE 5
24.03.2019 06:00:00 5,0 3,0 9 5 NNE 7
24.03.2019 05:00:00 5,0 3,0 11 6 NNE 7
24.03.2019 04:00:00 5,0 4,0 13 7 NNE 4,9
24.03.2019 03:00:00 6,0 4,0 15 8 NNE 4,8
24.03.2019 02:00:00 6,0 4,0 16 9 NNE 4,7
24.03.2019 01:00:00 7,0 4,0 15 8 NNE 4,6
24.03.2019 00:00:00 8,0 4,0 15 8 NNE 8
23.03.2019 23:00:00 9,0 5,0 16 9 N 8
23.03.2019 22:00:00 10,0 5,0 16 9 NNE 10
23.03.2019 21:00:00 11,0 6,0 18 10 NNE 10
23.03.2019 20:00:00 13,0 3,0 8 4 NNE 10
23.03.2019 19:00:00 16,0 2,0 5 3 N 10
23.03.2019 18:00:00 17,0 4,0 5 3 NNE 10
23.03.2019 17:00:00 19,0 1,0 4 2 - 10
23.03.2019 16:00:00 18,0 0,0 5 3 - 10
23.03.2019 15:00:00 18,0 0,0 5 3 WSW 10
23.03.2019 14:00:00 18,0 3,0 9 5 NW 10
23.03.2019 13:00:00 16,0 3,0 9 5 SW 10
23.03.2019 12:00:00 15,0 4,0 9 5 WSW 10
23.03.2019 11:00:00 13,0 4,0 11 6 SSW 10
23.03.2019 10:00:00 11,0 4,0 13 7 SW 10
23.03.2019 09:00:00 8,0 4,0 11 6 SW 10
23.03.2019 08:00:00 5,0 3,0 9 5 S 10
23.03.2019 07:00:00 1,0 0,0 4 2 S 10
23.03.2019 06:00:00 3,0 1,0 0 0 N 10
23.03.2019 05:00:00 3,0 2,0 4 2 SSW 10
23.03.2019 04:00:00 2,0 1,0 5 3 SSE 10
23.03.2019 03:00:00 3,0 1,0 4 2 S 10
23.03.2019 02:00:00 4,0 2,0 2 1 - 10
23.03.2019 01:00:00 4,0 1,0 4 2 SSE 10
23.03.2019 00:00:00 5,0 2,0 5 3 SSW 10
22.03.2019 23:00:00 6,0 3,0 0 0 N 10
22.03.2019 22:00:00 7,0 2,0 0 0 N 10
22.03.2019 21:00:00 8,0 2,0 4 2 SSE 10
22.03.2019 20:00:00 12,0 2,0 4 2 S 10
22.03.2019 19:00:00 14,0 2,0 4 2 SSW 10
22.03.2019 18:00:00 16,0 2,0 4 2 - 10
22.03.2019 17:00:00 17,0 2,0 4 2 - 10
22.03.2019 16:00:00 17,0 2,0 4 2 - 10
22.03.2019 15:00:00 16,0 0,0 0 0 N 10
22.03.2019 14:00:00 15,0 -1,0 4 2 - 10
22.03.2019 13:00:00 14,0 1,0 5 3 NNW 10
22.03.2019 12:00:00 11,0 2,0 5 3 - 10
22.03.2019 11:00:00 11,0 2,0 4 2 - 10
22.03.2019 10:00:00 9,0 2,0 4 2 - 10
22.03.2019 09:00:00 6,0 0,0 4 2 - 10
22.03.2019 08:00:00 2,0 0,0 2 1 - 10
22.03.2019 07:00:00 0,0 -2,0 4 2 - 10
22.03.2019 06:00:00 1,0 -2,0 0 0 N 10
22.03.2019 05:00:00 1,0 -1,0 0 0 N 10
22.03.2019 04:00:00 3,0 -1,0 5 3 S 10
22.03.2019 03:00:00 2,0 -2,0 8 4 NE 10
22.03.2019 02:00:00 4,0 -1,0 15 8 NNE 10
22.03.2019 01:00:00 4,0 -1,0 16 9 NE 10
22.03.2019 00:00:00 7,0 0,0 13 7 NE 10
21.03.2019 23:00:00 7,0 -1,0 9 5 NNE 10
21.03.2019 22:00:00 10,0 0,0 9 5 N 10
21.03.2019 21:00:00 10,0 -1,0 11 6 N 10
21.03.2019 20:00:00 11,0 -1,0 13 7 NNE 10
21.03.2019 19:00:00 12,0 -1,0 13 7 NNE 10
21.03.2019 18:00:00 15,0 -1,0 16 9 NNE 10
21.03.2019 17:00:00 16,0 -1,0 26 14 NNE 10
21.03.2019 16:00:00 16,0 -1,0 29 16 NNE 10
21.03.2019 15:00:00 16,0 0,0 29 16 NNE 10
21.03.2019 14:00:00 15,0 -1,0 28 15 NNE 10
21.03.2019 13:00:00 14,0 -2,0 24 13 N 10
21.03.2019 12:00:00 12,0 0,0 24 13 NNE 10
21.03.2019 11:00:00 10,0 0,0 18 10 N 10
21.03.2019 10:00:00 9,0 0,0 18 10 NNE 10
21.03.2019 09:00:00 6,0 -1,0 9 5 NNE 10
21.03.2019 08:00:00 4,0 -1,0 15 8 NNE 10
21.03.2019 07:00:00 2,0 -2,0 13 7 N 10
21.03.2019 06:00:00 2,0 -2,0 11 6 NNE 10
21.03.2019 05:00:00 1,0 -1,0 15 8 NNE 10
21.03.2019 04:00:00 2,0 -1,0 11 6 NNE 10
21.03.2019 03:00:00 2,0 -2,0 13 7 NNE 10
21.03.2019 02:00:00 2,0 -2,0 13 7 NNE 10
21.03.2019 01:00:00 3,0 -2,0 11 6 NNE 10
21.03.2019 00:00:00 4,0 -1,0 11 6 NNE 10
20.03.2019 23:00:00 4,0 -1,0 9 5 NNE 10
20.03.2019 22:00:00 5,0 -1,0 8 4 NE 10
20.03.2019 21:00:00 7,0 -2,0 4 2 ENE 10
20.03.2019 20:00:00 9,0 -2,0 11 6 ENE 10
20.03.2019 19:00:00 9,0 -2,0 15 8 NNE 10
20.03.2019 18:00:00 12,0 -3,0 22 12 NNE 10
20.03.2019 17:00:00 12,0 -2,0 22 12 N 10
20.03.2019 16:00:00 12,0 -2,0 18 10 N 10
20.03.2019 15:00:00 12,0 -2,0 21 11 N 10
20.03.2019 14:00:00 11,0 -2,0 21 11 N 10
20.03.2019 13:00:00 11,0 -1,0 21 11 N 10
20.03.2019 12:00:00 10,0 0,0 21 11 N 10
20.03.2019 11:00:00 8,0 1,0 13 7 N 10
20.03.2019 10:00:00 5,0 0,0 9 5 NNE 10
20.03.2019 09:00:00 3,0 -1,0 8 4 NE 10
20.03.2019 08:00:00 1,0 0,0 8 4 NNW 10
20.03.2019 07:00:00 -2,0 -3,0 0 0 N 10
20.03.2019 06:00:00 -2,0 -3,0 2 1 SE 10
20.03.2019 05:00:00 -2,0 -3,0 0 0 N 10
20.03.2019 04:00:00 -1,0 -3,0 0 0 N 10
20.03.2019 03:00:00 -1,0 -3,0 2 1 - 10
20.03.2019 02:00:00 1,0 -1,0 2 1 - 10
20.03.2019 01:00:00 1,0 -1,0 5 3 NNE 10
20.03.2019 00:00:00 2,0 -1,0 0 0 N 10
19.03.2019 23:00:00 4,0 -1,0 5 3 N 10
19.03.2019 22:00:00 4,0 -2,0 8 4 NNE 10
19.03.2019 21:00:00 6,0 -1,0 8 4 NNE 10
19.03.2019 20:00:00 6,0 -2,0 8 4 E 10
19.03.2019 19:00:00 7,0 -3,0 8 4 NNE 10
19.03.2019 18:00:00 10,0 -3,0 5 3 NNE 10
19.03.2019 17:00:00 11,0 -4,0 8 4 NNE 10
19.03.2019 16:00:00 11,0 -1,0 8 4 NNE 10
19.03.2019 15:00:00 11,0 0,0 9 5 N 10
19.03.2019 14:00:00 10,0 0,0 8 4 NNW 10
19.03.2019 13:00:00 10,0 2,0 9 5 N 10
19.03.2019 12:00:00 9,0 3,0 11 6 N 10
19.03.2019 11:00:00 7,0 2,0 8 4 NNE 10
19.03.2019 10:00:00 6,0 3,0 8 4 N 10
19.03.2019 09:00:00 5,0 2,0 5 3 N 10
19.03.2019 08:00:00 2,0 2,0 2 1 - 10
19.03.2019 07:00:00 1,0 1,0 2 1 E 10
19.03.2019 06:00:00 2,0 1,0 2 1 - 10
19.03.2019 05:00:00 3,0 1,0 8 4 SSW 10
19.03.2019 04:00:00 3,0 1,0 8 4 SSW 10
19.03.2019 03:00:00 - - - - - -
19.03.2019 02:00:00 - - - - - -
19.03.2019 01:00:00 - - - - - -
19.03.2019 00:00:00 - - - - - -
18.03.2019 23:00:00 3,0 0,0 8 4 SW 10
18.03.2019 22:00:00 4,0 1,0 8 4 SSW 10
18.03.2019 21:00:00 4,0 1,0 8 4 S 10
18.03.2019 20:00:00 6,0 0,0 8 4 SSW 10
18.03.2019 19:00:00 8,0 0,0 9 5 WSW 10
18.03.2019 18:00:00 8,0 2,0 16 9 SSW 10
18.03.2019 17:00:00 9,0 3,0 16 9 SW 10

tt = temperature
td = dewpoint
ff = wind speed
dd = wind direction
vv = visibility

Next stations